PWSweather.com
Personal Weather Stations
Station Observations
DW6359
Southwest Cambria, Cambria, WI 53923

Southwest CambriaCambria, WI 53923

Lat: 43.541194, Lon: -89.11275

Elevation: 945

Station Type: Davis Vantage Pro2

http://home.centurytel.net/weathercambria/wxcambria.html

High Low Average
Temperature 37.3°F2.9°C 25.0°F-3.9°C 32.0°F0.0°C
Dew Point 34.4°F1.3°C 21.5°F-5.8°C 27.7°F-2.4°C
Winds 17.0 mph 27.4 kmh Calm Calm 4.0 mph E6.4 kmh E
Wind Gusts 21.0 mph33.8 kmh -- 2.0 mph3.2 kmh
Humidity 92% 76% 84%
Pressure 30.38 in1028.8 mb 29.52 in999.7 mb -
Precipitation 0.26 in6.6 mm - -
Hour Temp Dew Point Humidity Winds Wind Gusts Pressure Precip Precip Rate Daily Precip Total
12:00 AM 29.7°F-1.3°C 24.6°F-4.1°C 81% 6.0 mph NW9.7 kmh NW -- 30.36 in1028.1 mb 0.00 in0.0 mm 0.00 in0.0 mm 0.12 in3.0 mm
12:05 AM 29.6°F-1.3°C 24.5°F-4.2°C 81% 7.0 mph N11.3 kmh N -- 30.36 in1028.1 mb 0.00 in0.0 mm 0.00 in0.0 mm 0.12 in3.0 mm
12:10 AM 29.5°F-1.4°C 24.1°F-4.4°C 80% 6.0 mph N9.7 kmh N -- 30.37 in1028.4 mb 0.00 in0.0 mm 0.00 in0.0 mm 0.12 in3.0 mm
12:15 AM 29.5°F-1.4°C 24.1°F-4.4°C 80% 2.0 mph NW3.2 kmh NW -- 30.37 in1028.4 mb 0.00 in0.0 mm 0.00 in0.0 mm 0.12 in3.0 mm
12:20 AM 29.4°F-1.4°C 24.0°F-4.4°C 80% 2.0 mph NW3.2 kmh NW 7.0 mph11.3 kmh 30.36 in1028.1 mb 0.00 in0.0 mm 0.00 in0.0 mm 0.12 in3.0 mm
12:25 AM 29.4°F-1.4°C 24.3°F-4.3°C 81% 3.0 mph NNE4.8 kmh NNE 7.0 mph11.3 kmh 30.36 in1028.1 mb 0.00 in0.0 mm 0.00 in0.0 mm 0.12 in3.0 mm
12:30 AM 29.4°F-1.4°C 24.3°F-4.3°C 81% 4.0 mph N6.4 kmh N -- 30.36 in1028.1 mb 0.00 in0.0 mm 0.00 in0.0 mm 0.12 in3.0 mm
12:35 AM 29.2°F-1.6°C 23.8°F-4.6°C 80% 3.0 mph N4.8 kmh N -- 30.37 in1028.4 mb 0.00 in0.0 mm 0.00 in0.0 mm 0.12 in3.0 mm
12:40 AM 29.2°F-1.6°C 23.8°F-4.6°C 80% 5.0 mph NW8.0 kmh NW -- 30.37 in1028.4 mb 0.00 in0.0 mm 0.00 in0.0 mm 0.12 in3.0 mm
12:45 AM 29.2°F-1.6°C 23.8°F-4.6°C 80% 2.0 mph NW3.2 kmh NW -- 30.37 in1028.4 mb 0.00 in0.0 mm 0.00 in0.0 mm 0.12 in3.0 mm
12:50 AM 29.2°F-1.6°C 23.8°F-4.6°C 80% 1.0 mph NW1.6 kmh NW -- 30.37 in1028.4 mb 0.00 in0.0 mm 0.00 in0.0 mm 0.12 in3.0 mm
12:55 AM 29.2°F-1.6°C 24.1°F-4.4°C 81% 3.0 mph NNW4.8 kmh NNW -- 30.37 in1028.4 mb 0.00 in0.0 mm 0.00 in0.0 mm 0.12 in3.0 mm
01:00 AM 29.3°F-1.5°C 24.2°F-4.3°C 81% Calm Calm -- 30.37 in1028.4 mb 0.00 in0.0 mm 0.00 in0.0 mm 0.00 in0.0 mm
01:05 AM 29.3°F-1.5°C 24.2°F-4.3°C 81% Calm Calm -- 30.37 in1028.4 mb 0.00 in0.0 mm 0.00 in0.0 mm 0.00 in0.0 mm
01:10 AM 29.3°F-1.5°C 24.2°F-4.3°C 81% Calm Calm -- 30.38 in1028.8 mb 0.00 in0.0 mm 0.00 in0.0 mm 0.00 in0.0 mm
01:15 AM 29.3°F-1.5°C 24.2°F-4.3°C 81% Calm Calm -- 30.37 in1028.4 mb 0.00 in0.0 mm 0.00 in0.0 mm 0.00 in0.0 mm
01:20 AM 29.3°F-1.5°C 24.2°F-4.3°C 81% Calm Calm -- 30.38 in1028.8 mb 0.00 in0.0 mm 0.00 in0.0 mm 0.00 in0.0 mm
01:25 AM 29.3°F-1.5°C 24.2°F-4.3°C 81% Calm Calm -- 30.38 in1028.8 mb 0.00 in0.0 mm 0.00 in0.0 mm 0.00 in0.0 mm
01:30 AM 29.3°F-1.5°C 24.2°F-4.3°C 81% Calm Calm -- 30.37 in1028.4 mb 0.00 in0.0 mm 0.00 in0.0 mm 0.00 in0.0 mm
01:35 AM 29.3°F-1.5°C 24.2°F-4.3°C 81% Calm Calm -- 30.38 in1028.8 mb 0.00 in0.0 mm 0.00 in0.0 mm 0.00 in0.0 mm
01:40 AM 29.3°F-1.5°C 24.2°F-4.3°C 81% Calm Calm -- 30.38 in1028.8 mb 0.00 in0.0 mm 0.00 in0.0 mm 0.00 in0.0 mm
01:45 AM 29.2°F-1.6°C 24.4°F-4.2°C 82% Calm Calm -- 30.38 in1028.8 mb 0.00 in0.0 mm 0.00 in0.0 mm 0.00 in0.0 mm
01:50 AM 29.2°F-1.6°C 24.4°F-4.2°C 82% Calm Calm -- 30.38 in1028.8 mb 0.00 in0.0 mm 0.00 in0.0 mm 0.00 in0.0 mm
01:55 AM 29.2°F-1.6°C 24.4°F-4.2°C 82% Calm Calm -- 30.37 in1028.4 mb 0.00 in0.0 mm 0.00 in0.0 mm 0.00 in0.0 mm
02:00 AM 29.2°F-1.6°C 24.4°F-4.2°C 82% Calm Calm -- 30.38 in1028.8 mb 0.00 in0.0 mm 0.00 in0.0 mm 0.00 in0.0 mm
02:05 AM 29.1°F-1.6°C 24.3°F-4.3°C 82% Calm Calm -- 30.38 in1028.8 mb 0.00 in0.0 mm 0.00 in0.0 mm 0.00 in0.0 mm
02:10 AM 29.0°F-1.7°C 24.2°F-4.3°C 82% Calm Calm -- 30.38 in1028.8 mb 0.00 in0.0 mm 0.00 in0.0 mm 0.00 in0.0 mm
02:15 AM 28.9°F-1.7°C 24.1°F-4.4°C 82% Calm Calm -- 30.38 in1028.8 mb 0.00 in0.0 mm 0.00 in0.0 mm 0.00 in0.0 mm
02:20 AM 28.9°F-1.7°C 24.1°F-4.4°C 82% Calm Calm -- 30.38 in1028.8 mb 0.00 in0.0 mm 0.00 in0.0 mm 0.00 in0.0 mm
02:25 AM 28.9°F-1.7°C 24.1°F-4.4°C 82% Calm Calm -- 30.37 in1028.4 mb 0.00 in0.0 mm 0.00 in0.0 mm 0.00 in0.0 mm
02:30 AM 28.9°F-1.7°C 24.1°F-4.4°C 82% Calm Calm -- 30.37 in1028.4 mb 0.00 in0.0 mm 0.00 in0.0 mm 0.00 in0.0 mm
02:35 AM 28.9°F-1.7°C 24.1°F-4.4°C 82% Calm Calm -- 30.37 in1028.4 mb 0.00 in0.0 mm 0.00 in0.0 mm 0.00 in0.0 mm
02:40 AM 28.9°F-1.7°C 24.1°F-4.4°C 82% Calm Calm -- 30.38 in1028.8 mb 0.00 in0.0 mm 0.00 in0.0 mm 0.00 in0.0 mm
02:45 AM 28.9°F-1.7°C 24.1°F-4.4°C 82% Calm Calm -- 30.38 in1028.8 mb 0.00 in0.0 mm 0.00 in0.0 mm 0.00 in0.0 mm
02:50 AM 28.9°F-1.7°C 24.1°F-4.4°C 82% Calm Calm -- 30.38 in1028.8 mb 0.00 in0.0 mm 0.00 in0.0 mm 0.00 in0.0 mm
02:55 AM 28.9°F-1.7°C 24.1°F-4.4°C 82% Calm Calm -- 30.38 in1028.8 mb 0.00 in0.0 mm 0.00 in0.0 mm 0.00 in0.0 mm
03:00 AM 28.9°F-1.7°C 24.1°F-4.4°C 82% Calm Calm -- 30.38 in1028.8 mb 0.00 in0.0 mm 0.00 in0.0 mm 0.00 in0.0 mm
03:05 AM 28.9°F-1.7°C 23.8°F-4.6°C 81% Calm Calm -- 30.38 in1028.8 mb 0.00 in0.0 mm 0.00 in0.0 mm 0.00 in0.0 mm
03:10 AM 28.8°F-1.8°C 23.7°F-4.6°C 81% Calm Calm -- 30.37 in1028.4 mb 0.00 in0.0 mm 0.00 in0.0 mm 0.00 in0.0 mm
03:15 AM 28.8°F-1.8°C 23.7°F-4.6°C 81% Calm Calm -- 30.37 in1028.4 mb 0.00 in0.0 mm 0.00 in0.0 mm 0.00 in0.0 mm
03:20 AM 28.8°F-1.8°C 23.7°F-4.6°C 81% Calm Calm -- 30.36 in1028.1 mb 0.00 in0.0 mm 0.00 in0.0 mm 0.00 in0.0 mm
03:25 AM 28.8°F-1.8°C 23.7°F-4.6°C 81% Calm Calm -- 30.36 in1028.1 mb 0.00 in0.0 mm 0.00 in0.0 mm 0.00 in0.0 mm
03:30 AM 28.8°F-1.8°C 23.7°F-4.6°C 81% Calm Calm -- 30.36 in1028.1 mb 0.00 in0.0 mm 0.00 in0.0 mm 0.00 in0.0 mm
03:35 AM 28.8°F-1.8°C 23.7°F-4.6°C 81% Calm Calm -- 30.36 in1028.1 mb 0.00 in0.0 mm 0.00 in0.0 mm 0.00 in0.0 mm
03:40 AM 28.8°F-1.8°C 24.0°F-4.4°C 82% Calm Calm 1.0 mph1.6 kmh 30.36 in1028.1 mb 0.00 in0.0 mm 0.00 in0.0 mm 0.00 in0.0 mm
03:45 AM 28.7°F-1.8°C 23.6°F-4.7°C 81% Calm Calm 1.0 mph1.6 kmh 30.35 in1027.8 mb 0.00 in0.0 mm 0.00 in0.0 mm 0.00 in0.0 mm
03:50 AM 28.6°F-1.9°C 23.5°F-4.7°C 81% 2.0 mph NNE3.2 kmh NNE -- 30.35 in1027.8 mb 0.00 in0.0 mm 0.00 in0.0 mm 0.00 in0.0 mm
03:55 AM 28.5°F-1.9°C 23.7°F-4.6°C 82% Calm Calm -- 30.34 in1027.4 mb 0.00 in0.0 mm 0.00 in0.0 mm 0.00 in0.0 mm
04:00 AM 28.5°F-1.9°C 23.7°F-4.6°C 82% Calm Calm -- 30.34 in1027.4 mb 0.00 in0.0 mm 0.00 in0.0 mm 0.00 in0.0 mm
04:05 AM 28.5°F-1.9°C 23.7°F-4.6°C 82% 1.0 mph NE1.6 kmh NE -- 30.34 in1027.4 mb 0.00 in0.0 mm 0.00 in0.0 mm 0.00 in0.0 mm
04:10 AM 28.5°F-1.9°C 23.7°F-4.6°C 82% Calm Calm -- 30.34 in1027.4 mb 0.00 in0.0 mm 0.00 in0.0 mm 0.00 in0.0 mm
04:15 AM 28.4°F-2.0°C 23.6°F-4.7°C 82% 2.0 mph NNE3.2 kmh NNE -- 30.34 in1027.4 mb 0.00 in0.0 mm 0.00 in0.0 mm 0.00 in0.0 mm
04:20 AM 28.4°F-2.0°C 23.6°F-4.7°C 82% Calm Calm -- 30.34 in1027.4 mb 0.00 in0.0 mm 0.00 in0.0 mm 0.00 in0.0 mm
04:25 AM 28.3°F-2.1°C 23.5°F-4.7°C 82% 1.0 mph NNE1.6 kmh NNE -- 30.33 in1027.1 mb 0.00 in0.0 mm 0.00 in0.0 mm 0.00 in0.0 mm
04:30 AM 28.2°F-2.1°C 23.1°F-4.9°C 81% Calm Calm 4.0 mph6.4 kmh 30.33 in1027.1 mb 0.00 in0.0 mm 0.00 in0.0 mm 0.00 in0.0 mm
04:35 AM 28.0°F-2.2°C 22.9°F-5.1°C 81% Calm Calm 4.0 mph6.4 kmh 30.33 in1027.1 mb 0.00 in0.0 mm 0.00 in0.0 mm 0.00 in0.0 mm
04:40 AM 27.9°F-2.3°C 22.8°F-5.1°C 81% Calm Calm -- 30.34 in1027.4 mb 0.00 in0.0 mm 0.00 in0.0 mm 0.00 in0.0 mm
04:45 AM 27.8°F-2.3°C 23.0°F-5.0°C 82% Calm Calm -- 30.33 in1027.1 mb 0.00 in0.0 mm 0.00 in0.0 mm 0.00 in0.0 mm
04:50 AM 27.7°F-2.4°C 22.9°F-5.1°C 82% Calm Calm -- 30.33 in1027.1 mb 0.00 in0.0 mm 0.00 in0.0 mm 0.00 in0.0 mm
04:55 AM 27.5°F-2.5°C 22.7°F-5.2°C 82% Calm Calm -- 30.33 in1027.1 mb 0.00 in0.0 mm 0.00 in0.0 mm 0.00 in0.0 mm
05:00 AM 27.4°F-2.6°C 22.6°F-5.2°C 82% Calm Calm -- 30.33 in1027.1 mb 0.00 in0.0 mm 0.00 in0.0 mm 0.00 in0.0 mm
05:05 AM 27.2°F-2.7°C 22.4°F-5.3°C 82% Calm Calm -- 30.32 in1026.8 mb 0.00 in0.0 mm 0.00 in0.0 mm 0.00 in0.0 mm
05:10 AM 27.0°F-2.8°C 22.5°F-5.3°C 83% Calm Calm -- 30.32 in1026.8 mb 0.00 in0.0 mm 0.00 in0.0 mm 0.00 in0.0 mm
05:15 AM 26.9°F-2.8°C 22.4°F-5.3°C 83% Calm Calm -- 30.32 in1026.8 mb 0.00 in0.0 mm 0.00 in0.0 mm 0.00 in0.0 mm
05:20 AM 26.7°F-2.9°C 22.2°F-5.4°C 83% Calm Calm -- 30.32 in1026.8 mb 0.00 in0.0 mm 0.00 in0.0 mm 0.00 in0.0 mm
05:25 AM 26.6°F-3.0°C 22.4°F-5.3°C 84% Calm Calm -- 30.32 in1026.8 mb 0.00 in0.0 mm 0.00 in0.0 mm 0.00 in0.0 mm
05:30 AM 26.4°F-3.1°C 22.2°F-5.4°C 84% Calm Calm -- 30.32 in1026.8 mb 0.00 in0.0 mm 0.00 in0.0 mm 0.00 in0.0 mm
05:35 AM 26.3°F-3.2°C 22.1°F-5.5°C 84% Calm Calm -- 30.32 in1026.8 mb 0.00 in0.0 mm 0.00 in0.0 mm 0.00 in0.0 mm
05:40 AM 26.1°F-3.3°C 21.9°F-5.6°C 84% Calm Calm -- 30.32 in1026.8 mb 0.00 in0.0 mm 0.00 in0.0 mm 0.00 in0.0 mm
05:45 AM 26.0°F-3.3°C 22.1°F-5.5°C 85% Calm Calm -- 30.32 in1026.8 mb 0.00 in0.0 mm 0.00 in0.0 mm 0.00 in0.0 mm
05:50 AM 26.0°F-3.3°C 22.1°F-5.5°C 85% Calm Calm -- 30.32 in1026.8 mb 0.00 in0.0 mm 0.00 in0.0 mm 0.00 in0.0 mm
05:55 AM 25.9°F-3.4°C 23.9°F-4.5°C 92% Calm Calm -- 30.32 in1026.8 mb 0.00 in0.0 mm 0.00 in0.0 mm 0.00 in0.0 mm
06:00 AM 25.8°F-3.4°C 21.9°F-5.6°C 85% Calm Calm -- 30.32 in1026.8 mb 0.00 in0.0 mm 0.00 in0.0 mm 0.00 in0.0 mm
06:05 AM 25.7°F-3.5°C 21.8°F-5.7°C 85% Calm Calm -- 30.32 in1026.8 mb 0.00 in0.0 mm 0.00 in0.0 mm 0.00 in0.0 mm
06:10 AM 25.6°F-3.6°C 22.0°F-5.6°C 86% Calm Calm -- 30.32 in1026.8 mb 0.00 in0.0 mm 0.00 in0.0 mm 0.00 in0.0 mm
06:15 AM 25.5°F-3.6°C 21.9°F-5.6°C 86% Calm Calm -- 30.32 in1026.8 mb 0.00 in0.0 mm 0.00 in0.0 mm 0.00 in0.0 mm
06:20 AM 25.4°F-3.7°C 21.8°F-5.7°C 86% Calm Calm -- 30.31 in1026.4 mb 0.00 in0.0 mm 0.00 in0.0 mm 0.00 in0.0 mm
06:25 AM 25.4°F-3.7°C 21.8°F-5.7°C 86% Calm Calm -- 30.31 in1026.4 mb 0.00 in0.0 mm 0.00 in0.0 mm 0.00 in0.0 mm
06:30 AM 25.3°F-3.7°C 21.7°F-5.7°C 86% Calm Calm -- 30.31 in1026.4 mb 0.00 in0.0 mm 0.00 in0.0 mm 0.00 in0.0 mm
06:35 AM 25.2°F-3.8°C 21.6°F-5.8°C 86% Calm Calm -- 30.31 in1026.4 mb 0.00 in0.0 mm 0.00 in0.0 mm 0.00 in0.0 mm
06:40 AM 25.1°F-3.8°C 21.5°F-5.8°C 86% Calm Calm -- 30.31 in1026.4 mb 0.00 in0.0 mm 0.00 in0.0 mm 0.00 in0.0 mm
06:45 AM 25.1°F-3.8°C 21.8°F-5.7°C 87% Calm Calm -- 30.31 in1026.4 mb 0.00 in0.0 mm 0.00 in0.0 mm 0.00 in0.0 mm
06:50 AM 25.0°F-3.9°C 21.7°F-5.7°C 87% Calm Calm -- 30.31 in1026.4 mb 0.00 in0.0 mm 0.00 in0.0 mm 0.00 in0.0 mm
06:55 AM 25.0°F-3.9°C 21.7°F-5.7°C 87% Calm Calm -- 30.31 in1026.4 mb 0.00 in0.0 mm 0.00 in0.0 mm 0.00 in0.0 mm
07:00 AM 25.0°F-3.9°C 21.7°F-5.7°C 87% Calm Calm -- 30.31 in1026.4 mb 0.00 in0.0 mm 0.00 in0.0 mm 0.00 in0.0 mm
07:05 AM 25.0°F-3.9°C 21.7°F-5.7°C 87% Calm Calm -- 30.31 in1026.4 mb 0.00 in0.0 mm 0.00 in0.0 mm 0.00 in0.0 mm
07:10 AM 25.1°F-3.8°C 21.8°F-5.7°C 87% Calm Calm -- 30.31 in1026.4 mb 0.00 in0.0 mm 0.00 in0.0 mm 0.00 in0.0 mm
07:15 AM 25.1°F-3.8°C 21.8°F-5.7°C 87% Calm Calm -- 30.31 in1026.4 mb 0.00 in0.0 mm 0.00 in0.0 mm 0.00 in0.0 mm
07:20 AM 25.2°F-3.8°C 21.9°F-5.6°C 87% Calm Calm -- 30.31 in1026.4 mb 0.00 in0.0 mm 0.00 in0.0 mm 0.00 in0.0 mm
07:25 AM 25.1°F-3.8°C 21.8°F-5.7°C 87% Calm Calm -- 30.31 in1026.4 mb 0.00 in0.0 mm 0.00 in0.0 mm 0.00 in0.0 mm
07:30 AM 25.1°F-3.8°C 21.8°F-5.7°C 87% Calm Calm -- 30.30 in1026.1 mb 0.00 in0.0 mm 0.00 in0.0 mm 0.00 in0.0 mm
07:35 AM 25.1°F-3.8°C 21.8°F-5.7°C 87% Calm Calm -- 30.30 in1026.1 mb 0.00 in0.0 mm 0.00 in0.0 mm 0.00 in0.0 mm
07:40 AM 25.0°F-3.9°C 21.7°F-5.7°C 87% Calm Calm -- 30.29 in1025.7 mb 0.00 in0.0 mm 0.00 in0.0 mm 0.00 in0.0 mm
07:45 AM 25.0°F-3.9°C 21.7°F-5.7°C 87% Calm Calm -- 30.29 in1025.7 mb 0.00 in0.0 mm 0.00 in0.0 mm 0.00 in0.0 mm
07:50 AM 25.1°F-3.8°C 21.8°F-5.7°C 87% Calm Calm -- 30.30 in1026.1 mb 0.00 in0.0 mm 0.00 in0.0 mm 0.00 in0.0 mm
07:55 AM 25.1°F-3.8°C 21.8°F-5.7°C 87% Calm Calm -- 30.30 in1026.1 mb 0.00 in0.0 mm 0.00 in0.0 mm 0.00 in0.0 mm
08:00 AM 25.2°F-3.8°C 21.9°F-5.6°C 87% Calm Calm -- 30.30 in1026.1 mb 0.00 in0.0 mm 0.00 in0.0 mm 0.00 in0.0 mm
08:05 AM 25.3°F-3.7°C 22.0°F-5.6°C 87% Calm Calm -- 30.29 in1025.7 mb 0.00 in0.0 mm 0.00 in0.0 mm 0.00 in0.0 mm
08:10 AM 25.4°F-3.7°C 22.1°F-5.5°C 87% Calm Calm -- 30.29 in1025.7 mb 0.00 in0.0 mm 0.00 in0.0 mm 0.00 in0.0 mm
08:15 AM 25.6°F-3.6°C 22.3°F-5.4°C 87% Calm Calm -- 30.29 in1025.7 mb 0.00 in0.0 mm 0.00 in0.0 mm 0.00 in0.0 mm
08:20 AM 25.6°F-3.6°C 22.3°F-5.4°C 87% Calm Calm -- 30.29 in1025.7 mb 0.00 in0.0 mm 0.00 in0.0 mm 0.00 in0.0 mm
08:25 AM 25.6°F-3.6°C 22.3°F-5.4°C 87% Calm Calm -- 30.29 in1025.7 mb 0.00 in0.0 mm 0.00 in0.0 mm 0.00 in0.0 mm
08:30 AM 25.7°F-3.5°C 22.4°F-5.3°C 87% Calm Calm -- 30.29 in1025.7 mb 0.00 in0.0 mm 0.00 in0.0 mm 0.00 in0.0 mm
08:35 AM 25.8°F-3.4°C 22.5°F-5.3°C 87% Calm Calm -- 30.29 in1025.7 mb 0.00 in0.0 mm 0.00 in0.0 mm 0.00 in0.0 mm
08:40 AM 25.9°F-3.4°C 22.6°F-5.2°C 87% Calm Calm -- 30.29 in1025.7 mb 0.00 in0.0 mm 0.00 in0.0 mm 0.00 in0.0 mm
08:45 AM 26.1°F-3.3°C 22.8°F-5.1°C 87% Calm Calm -- 30.28 in1025.4 mb 0.00 in0.0 mm 0.00 in0.0 mm 0.00 in0.0 mm
08:50 AM 26.3°F-3.2°C 23.0°F-5.0°C 87% Calm Calm -- 30.29 in1025.7 mb 0.00 in0.0 mm 0.00 in0.0 mm 0.00 in0.0 mm
08:55 AM 26.7°F-2.9°C 23.4°F-4.8°C 87% Calm Calm -- 30.29 in1025.7 mb 0.00 in0.0 mm 0.00 in0.0 mm 0.00 in0.0 mm
09:00 AM 27.0°F-2.8°C 23.7°F-4.6°C 87% Calm Calm -- 30.29 in1025.7 mb 0.00 in0.0 mm 0.00 in0.0 mm 0.00 in0.0 mm
09:05 AM 27.5°F-2.5°C 24.1°F-4.4°C 87% Calm Calm -- 30.28 in1025.4 mb 0.00 in0.0 mm 0.00 in0.0 mm 0.00 in0.0 mm
09:10 AM 27.8°F-2.3°C 24.2°F-4.3°C 86% Calm Calm -- 30.29 in1025.7 mb 0.00 in0.0 mm 0.00 in0.0 mm 0.00 in0.0 mm
09:15 AM 28.2°F-2.1°C 24.6°F-4.1°C 86% 3.0 mph ESE4.8 kmh ESE -- 30.29 in1025.7 mb 0.00 in0.0 mm 0.00 in0.0 mm 0.00 in0.0 mm
09:20 AM 28.5°F-1.9°C 24.6°F-4.1°C 85% 1.0 mph ESE1.6 kmh ESE -- 30.28 in1025.4 mb 0.00 in0.0 mm 0.00 in0.0 mm 0.00 in0.0 mm
09:25 AM 28.7°F-1.8°C 24.5°F-4.2°C 84% 1.0 mph ESE1.6 kmh ESE -- 30.29 in1025.7 mb 0.00 in0.0 mm 0.00 in0.0 mm 0.00 in0.0 mm
09:30 AM 28.7°F-1.8°C 24.5°F-4.2°C 84% Calm Calm 6.0 mph9.7 kmh 30.29 in1025.7 mb 0.00 in0.0 mm 0.00 in0.0 mm 0.00 in0.0 mm
09:35 AM 28.6°F-1.9°C 24.4°F-4.2°C 84% Calm Calm 6.0 mph9.7 kmh 30.28 in1025.4 mb 0.00 in0.0 mm 0.00 in0.0 mm 0.00 in0.0 mm
09:40 AM 28.8°F-1.8°C 24.6°F-4.1°C 84% Calm Calm -- 30.27 in1025.1 mb 0.00 in0.0 mm 0.00 in0.0 mm 0.00 in0.0 mm
09:45 AM 29.3°F-1.5°C 25.1°F-3.8°C 84% 2.0 mph E3.2 kmh E -- 30.27 in1025.1 mb 0.00 in0.0 mm 0.00 in0.0 mm 0.00 in0.0 mm
09:50 AM 29.5°F-1.4°C 25.0°F-3.9°C 83% 2.0 mph E3.2 kmh E -- 30.27 in1025.1 mb 0.00 in0.0 mm 0.00 in0.0 mm 0.00 in0.0 mm
09:55 AM 29.6°F-1.3°C 25.1°F-3.8°C 83% 2.0 mph ESE3.2 kmh ESE -- 30.26 in1024.7 mb 0.00 in0.0 mm 0.00 in0.0 mm 0.00 in0.0 mm
10:00 AM 29.8°F-1.2°C 25.3°F-3.7°C 83% 3.0 mph E4.8 kmh E -- 30.27 in1025.1 mb 0.00 in0.0 mm 0.00 in0.0 mm 0.00 in0.0 mm
10:05 AM 30.2°F-1.0°C 25.4°F-3.7°C 82% 3.0 mph SE4.8 kmh SE -- 30.27 in1025.1 mb 0.00 in0.0 mm 0.00 in0.0 mm 0.00 in0.0 mm
10:10 AM 30.4°F-0.9°C 25.6°F-3.6°C 82% 6.0 mph SE9.7 kmh SE -- 30.27 in1025.1 mb 0.00 in0.0 mm 0.00 in0.0 mm 0.00 in0.0 mm
10:15 AM 30.5°F-0.8°C 25.4°F-3.7°C 81% 3.0 mph ESE4.8 kmh ESE -- 30.28 in1025.4 mb 0.00 in0.0 mm 0.00 in0.0 mm 0.00 in0.0 mm
10:20 AM 30.5°F-0.8°C 25.4°F-3.7°C 81% 3.0 mph ESE4.8 kmh ESE 9.0 mph14.5 kmh 30.28 in1025.4 mb 0.00 in0.0 mm 0.00 in0.0 mm 0.00 in0.0 mm
10:25 AM 30.5°F-0.8°C 25.4°F-3.7°C 81% 4.0 mph SE6.4 kmh SE 9.0 mph14.5 kmh 30.27 in1025.1 mb 0.00 in0.0 mm 0.00 in0.0 mm 0.00 in0.0 mm
10:30 AM 30.5°F-0.8°C 25.4°F-3.7°C 81% 3.0 mph ESE4.8 kmh ESE -- 30.27 in1025.1 mb 0.00 in0.0 mm 0.00 in0.0 mm 0.00 in0.0 mm
10:35 AM 30.7°F-0.7°C 25.6°F-3.6°C 81% 4.0 mph ESE6.4 kmh ESE -- 30.27 in1025.1 mb 0.00 in0.0 mm 0.00 in0.0 mm 0.00 in0.0 mm
10:40 AM 30.7°F-0.7°C 25.6°F-3.6°C 81% 6.0 mph E9.7 kmh E -- 30.27 in1025.1 mb 0.00 in0.0 mm 0.00 in0.0 mm 0.00 in0.0 mm
10:45 AM 31.0°F-0.6°C 26.2°F-3.2°C 82% 5.0 mph SE8.0 kmh SE -- 30.27 in1025.1 mb 0.00 in0.0 mm 0.00 in0.0 mm 0.00 in0.0 mm
10:50 AM 31.3°F-0.4°C 26.2°F-3.2°C 81% 6.0 mph E9.7 kmh E -- 30.27 in1025.1 mb 0.00 in0.0 mm 0.00 in0.0 mm 0.00 in0.0 mm
10:55 AM 31.2°F-0.4°C 26.1°F-3.3°C 81% 3.0 mph ESE4.8 kmh ESE -- 30.27 in1025.1 mb 0.00 in0.0 mm 0.00 in0.0 mm 0.00 in0.0 mm
11:00 AM 31.3°F-0.4°C 26.2°F-3.2°C 81% 3.0 mph E4.8 kmh E -- 30.26 in1024.7 mb 0.00 in0.0 mm 0.00 in0.0 mm 0.00 in0.0 mm
11:05 AM 31.3°F-0.4°C 26.2°F-3.2°C 81% 3.0 mph E4.8 kmh E -- 30.26 in1024.7 mb 0.00 in0.0 mm 0.00 in0.0 mm 0.00 in0.0 mm
11:10 AM 31.5°F-0.3°C 26.4°F-3.1°C 81% 3.0 mph SE4.8 kmh SE 15.0 mph24.1 kmh 30.25 in1024.4 mb 0.00 in0.0 mm 0.00 in0.0 mm 0.00 in0.0 mm
11:15 AM 31.7°F-0.2°C 26.8°F-2.9°C 82% Calm Calm 15.0 mph24.1 kmh 30.25 in1024.4 mb 0.00 in0.0 mm 0.00 in0.0 mm 0.00 in0.0 mm
11:20 AM 32.1°F0.1°C 27.2°F-2.7°C 82% 1.0 mph ESE1.6 kmh ESE -- 30.25 in1024.4 mb 0.00 in0.0 mm 0.00 in0.0 mm 0.00 in0.0 mm
11:25 AM 32.5°F0.3°C 27.6°F-2.4°C 82% 3.0 mph ESE4.8 kmh ESE -- 30.24 in1024.0 mb 0.00 in0.0 mm 0.00 in0.0 mm 0.00 in0.0 mm
11:30 AM 32.6°F0.3°C 27.4°F-2.6°C 81% 3.0 mph E4.8 kmh E -- 30.24 in1024.0 mb 0.00 in0.0 mm 0.00 in0.0 mm 0.00 in0.0 mm
11:35 AM 32.6°F0.3°C 27.4°F-2.6°C 81% 3.0 mph ESE4.8 kmh ESE -- 30.24 in1024.0 mb 0.00 in0.0 mm 0.00 in0.0 mm 0.00 in0.0 mm
11:40 AM 32.6°F0.3°C 27.4°F-2.6°C 81% 4.0 mph ESE6.4 kmh ESE -- 30.24 in1024.0 mb 0.00 in0.0 mm 0.00 in0.0 mm 0.00 in0.0 mm
11:45 AM 32.8°F0.4°C 27.6°F-2.4°C 81% 3.0 mph ESE4.8 kmh ESE -- 30.23 in1023.7 mb 0.00 in0.0 mm 0.00 in0.0 mm 0.00 in0.0 mm
11:50 AM 32.9°F0.5°C 27.4°F-2.6°C 80% 3.0 mph ESE4.8 kmh ESE -- 30.23 in1023.7 mb 0.00 in0.0 mm 0.00 in0.0 mm 0.00 in0.0 mm
11:55 AM 33.0°F0.6°C 27.8°F-2.3°C 81% 3.0 mph ESE4.8 kmh ESE -- 30.23 in1023.7 mb 0.00 in0.0 mm 0.00 in0.0 mm 0.00 in0.0 mm
12:00 PM 33.1°F0.6°C 27.6°F-2.4°C 80% 6.0 mph E9.7 kmh E 9.0 mph14.5 kmh 30.22 in1023.4 mb 0.00 in0.0 mm 0.00 in0.0 mm 0.00 in0.0 mm
12:05 PM 33.2°F0.7°C 27.7°F-2.4°C 80% 3.0 mph E4.8 kmh E 9.0 mph14.5 kmh 30.22 in1023.4 mb 0.00 in0.0 mm 0.00 in0.0 mm 0.00 in0.0 mm
12:10 PM 33.4°F0.8°C 27.9°F-2.3°C 80% 5.0 mph ESE8.0 kmh ESE -- 30.22 in1023.4 mb 0.00 in0.0 mm 0.00 in0.0 mm 0.00 in0.0 mm
12:15 PM 33.5°F0.8°C 28.0°F-2.2°C 80% 5.0 mph E8.0 kmh E -- 30.21 in1023.0 mb 0.00 in0.0 mm 0.00 in0.0 mm 0.00 in0.0 mm
12:20 PM 33.7°F0.9°C 28.2°F-2.1°C 80% 7.0 mph E11.3 kmh E -- 30.20 in1022.7 mb 0.00 in0.0 mm 0.00 in0.0 mm 0.00 in0.0 mm
12:25 PM 33.9°F1.1°C 28.4°F-2.0°C 80% 7.0 mph E11.3 kmh E -- 30.20 in1022.7 mb 0.00 in0.0 mm 0.00 in0.0 mm 0.00 in0.0 mm
12:30 PM 34.5°F1.4°C 29.0°F-1.7°C 80% 4.0 mph SE6.4 kmh SE -- 30.19 in1022.4 mb 0.00 in0.0 mm 0.00 in0.0 mm 0.00 in0.0 mm
12:35 PM 34.6°F1.4°C 28.8°F-1.8°C 79% 4.0 mph ENE6.4 kmh ENE -- 30.19 in1022.4 mb 0.00 in0.0 mm 0.00 in0.0 mm 0.00 in0.0 mm
12:40 PM 34.5°F1.4°C 28.7°F-1.8°C 79% 7.0 mph ESE11.3 kmh ESE -- 30.17 in1021.7 mb 0.00 in0.0 mm 0.00 in0.0 mm 0.00 in0.0 mm
12:45 PM 34.5°F1.4°C 28.7°F-1.8°C 79% 9.0 mph ESE14.5 kmh ESE -- 30.17 in1021.7 mb 0.00 in0.0 mm 0.00 in0.0 mm 0.00 in0.0 mm
12:50 PM 34.6°F1.4°C 28.5°F-1.9°C 78% 3.0 mph E4.8 kmh E 10.0 mph16.1 kmh 30.16 in1021.3 mb 0.00 in0.0 mm 0.00 in0.0 mm 0.00 in0.0 mm
12:55 PM 34.6°F1.4°C 28.5°F-1.9°C 78% 3.0 mph E4.8 kmh E 10.0 mph16.1 kmh 30.15 in1021.0 mb 0.00 in0.0 mm 0.00 in0.0 mm 0.00 in0.0 mm
01:00 PM 34.4°F1.3°C 28.3°F-2.1°C 78% 5.0 mph ESE8.0 kmh ESE -- 30.13 in1020.3 mb 0.00 in0.0 mm 0.00 in0.0 mm 0.00 in0.0 mm
01:05 PM 34.6°F1.4°C 28.8°F-1.8°C 79% 1.0 mph E1.6 kmh E -- 30.12 in1020.0 mb 0.00 in0.0 mm 0.00 in0.0 mm 0.00 in0.0 mm
01:10 PM 34.8°F1.6°C 29.0°F-1.7°C 79% 4.0 mph ESE6.4 kmh ESE -- 30.11 in1019.6 mb 0.00 in0.0 mm 0.00 in0.0 mm 0.00 in0.0 mm
01:15 PM 35.1°F1.7°C 28.9°F-1.7°C 78% 8.0 mph SE12.9 kmh SE -- 30.10 in1019.3 mb 0.00 in0.0 mm 0.00 in0.0 mm 0.00 in0.0 mm
01:20 PM 35.2°F1.8°C 28.4°F-2.0°C 76% 5.0 mph E8.0 kmh E -- 30.10 in1019.3 mb 0.00 in0.0 mm 0.00 in0.0 mm 0.00 in0.0 mm
01:25 PM 34.9°F1.6°C 28.1°F-2.2°C 76% 7.0 mph ESE11.3 kmh ESE -- 30.11 in1019.6 mb 0.00 in0.0 mm 0.00 in0.0 mm 0.00 in0.0 mm
01:30 PM 35.0°F1.7°C 28.5°F-1.9°C 77% 10.0 mph SE16.1 kmh SE -- 30.11 in1019.6 mb 0.00 in0.0 mm 0.00 in0.0 mm 0.00 in0.0 mm
01:35 PM 35.1°F1.7°C 28.6°F-1.9°C 77% 3.0 mph E4.8 kmh E -- 30.11 in1019.6 mb 0.00 in0.0 mm 0.00 in0.0 mm 0.00 in0.0 mm
01:40 PM 35.2°F1.8°C 28.7°F-1.8°C 77% 4.0 mph ESE6.4 kmh ESE 13.0 mph20.9 kmh 30.11 in1019.6 mb 0.00 in0.0 mm 0.00 in0.0 mm 0.00 in0.0 mm
01:45 PM 35.2°F1.8°C 28.4°F-2.0°C 76% 7.0 mph ESE11.3 kmh ESE 13.0 mph20.9 kmh 30.11 in1019.6 mb 0.00 in0.0 mm 0.00 in0.0 mm 0.00 in0.0 mm
01:50 PM 35.3°F1.8°C 28.8°F-1.8°C 77% 5.0 mph SE8.0 kmh SE -- 30.11 in1019.6 mb 0.00 in0.0 mm 0.00 in0.0 mm 0.00 in0.0 mm
01:55 PM 35.7°F2.1°C 29.2°F-1.6°C 77% 5.0 mph ENE8.0 kmh ENE -- 30.11 in1019.6 mb 0.00 in0.0 mm 0.00 in0.0 mm 0.00 in0.0 mm
02:00 PM 35.7°F2.1°C 28.9°F-1.7°C 76% 5.0 mph ESE8.0 kmh ESE -- 30.10 in1019.3 mb 0.00 in0.0 mm 0.00 in0.0 mm 0.00 in0.0 mm
02:05 PM 35.7°F2.1°C 28.9°F-1.7°C 76% 4.0 mph ESE6.4 kmh ESE -- 30.09 in1019.0 mb 0.00 in0.0 mm 0.00 in0.0 mm 0.00 in0.0 mm
02:10 PM 35.7°F2.1°C 29.2°F-1.6°C 77% 3.0 mph E4.8 kmh E -- 30.09 in1019.0 mb 0.00 in0.0 mm 0.00 in0.0 mm 0.00 in0.0 mm
02:15 PM 35.9°F2.2°C 29.4°F-1.4°C 77% 3.0 mph ESE4.8 kmh ESE -- 30.08 in1018.6 mb 0.00 in0.0 mm 0.00 in0.0 mm 0.00 in0.0 mm
02:20 PM 36.0°F2.2°C 29.2°F-1.6°C 76% 2.0 mph E3.2 kmh E -- 30.08 in1018.6 mb 0.00 in0.0 mm 0.00 in0.0 mm 0.00 in0.0 mm
02:25 PM 35.8°F2.1°C 29.0°F-1.7°C 76% 3.0 mph ESE4.8 kmh ESE -- 30.08 in1018.6 mb 0.00 in0.0 mm 0.00 in0.0 mm 0.00 in0.0 mm
02:30 PM 35.9°F2.2°C 29.1°F-1.6°C 76% 5.0 mph ESE8.0 kmh ESE 9.0 mph14.5 kmh 30.08 in1018.6 mb 0.00 in0.0 mm 0.00 in0.0 mm 0.00 in0.0 mm
02:35 PM 35.9°F2.2°C 29.1°F-1.6°C 76% 4.0 mph ESE6.4 kmh ESE 9.0 mph14.5 kmh 30.08 in1018.6 mb 0.00 in0.0 mm 0.00 in0.0 mm 0.00 in0.0 mm
02:40 PM 36.0°F2.2°C 29.5°F-1.4°C 77% 3.0 mph ESE4.8 kmh ESE -- 30.08 in1018.6 mb 0.00 in0.0 mm 0.00 in0.0 mm 0.00 in0.0 mm
02:45 PM 36.1°F2.3°C 29.6°F-1.3°C 77% 5.0 mph SE8.0 kmh SE -- 30.07 in1018.3 mb 0.00 in0.0 mm 0.00 in0.0 mm 0.00 in0.0 mm
02:50 PM 36.0°F2.2°C 29.2°F-1.6°C 76% 5.0 mph SE8.0 kmh SE -- 30.06 in1017.9 mb 0.00 in0.0 mm 0.00 in0.0 mm 0.00 in0.0 mm
02:55 PM 35.9°F2.2°C 29.4°F-1.4°C 77% 3.0 mph ESE4.8 kmh ESE -- 30.06 in1017.9 mb 0.00 in0.0 mm 0.00 in0.0 mm 0.00 in0.0 mm
03:00 PM 35.7°F2.1°C 28.9°F-1.7°C 76% 5.0 mph SE8.0 kmh SE -- 30.05 in1017.6 mb 0.00 in0.0 mm 0.00 in0.0 mm 0.00 in0.0 mm
03:05 PM 35.5°F1.9°C 29.0°F-1.7°C 77% 3.0 mph ESE4.8 kmh ESE -- 30.05 in1017.6 mb 0.00 in0.0 mm 0.00 in0.0 mm 0.00 in0.0 mm
03:10 PM 35.5°F1.9°C 29.3°F-1.5°C 78% 5.0 mph E8.0 kmh E -- 30.04 in1017.3 mb 0.00 in0.0 mm 0.00 in0.0 mm 0.00 in0.0 mm
03:15 PM 35.4°F1.9°C 29.2°F-1.6°C 78% 4.0 mph E6.4 kmh E -- 30.04 in1017.3 mb 0.00 in0.0 mm 0.00 in0.0 mm 0.00 in0.0 mm
03:20 PM 35.5°F1.9°C 29.6°F-1.3°C 79% 4.0 mph ESE6.4 kmh ESE 13.0 mph20.9 kmh 30.04 in1017.3 mb 0.00 in0.0 mm 0.00 in0.0 mm 0.00 in0.0 mm
03:25 PM 35.5°F1.9°C 29.6°F-1.3°C 79% 7.0 mph ESE11.3 kmh ESE 13.0 mph20.9 kmh 30.03 in1016.9 mb 0.00 in0.0 mm 0.00 in0.0 mm 0.00 in0.0 mm
03:30 PM 35.5°F1.9°C 29.6°F-1.3°C 79% 4.0 mph ESE6.4 kmh ESE -- 30.02 in1016.6 mb 0.00 in0.0 mm 0.00 in0.0 mm 0.00 in0.0 mm
03:35 PM 35.4°F1.9°C 29.9°F-1.2°C 80% 4.0 mph ENE6.4 kmh ENE -- 30.01 in1016.3 mb 0.00 in0.0 mm 0.00 in0.0 mm 0.00 in0.0 mm
03:40 PM 35.4°F1.9°C 29.9°F-1.2°C 80% 6.0 mph SE9.7 kmh SE -- 30.01 in1016.3 mb 0.00 in0.0 mm 0.00 in0.0 mm 0.00 in0.0 mm
03:45 PM 35.5°F1.9°C 30.0°F-1.1°C 80% 6.0 mph E9.7 kmh E -- 30.01 in1016.3 mb 0.00 in0.0 mm 0.00 in0.0 mm 0.00 in0.0 mm
03:50 PM 35.5°F1.9°C 30.0°F-1.1°C 80% 5.0 mph ESE8.0 kmh ESE -- 30.00 in1015.9 mb 0.00 in0.0 mm 0.00 in0.0 mm 0.00 in0.0 mm
03:55 PM 35.5°F1.9°C 30.3°F-0.9°C 81% 9.0 mph SE14.5 kmh SE -- 30.00 in1015.9 mb 0.00 in0.0 mm 0.00 in0.0 mm 0.00 in0.0 mm
04:00 PM 35.5°F1.9°C 30.3°F-0.9°C 81% 9.0 mph SE14.5 kmh SE -- 30.00 in1015.9 mb 0.00 in0.0 mm 0.00 in0.0 mm 0.00 in0.0 mm
04:05 PM 35.5°F1.9°C 30.3°F-0.9°C 81% 8.0 mph ESE12.9 kmh ESE -- 30.00 in1015.9 mb 0.00 in0.0 mm 0.00 in0.0 mm 0.00 in0.0 mm
04:10 PM 35.3°F1.8°C 30.1°F-1.1°C 81% 5.0 mph ESE8.0 kmh ESE 15.0 mph24.1 kmh 30.00 in1015.9 mb 0.00 in0.0 mm 0.00 in0.0 mm 0.00 in0.0 mm
04:15 PM 35.3°F1.8°C 30.1°F-1.1°C 81% 6.0 mph SE9.7 kmh SE 15.0 mph24.1 kmh 30.00 in1015.9 mb 0.00 in0.0 mm 0.00 in0.0 mm 0.00 in0.0 mm
04:20 PM 35.2°F1.8°C 30.3°F-0.9°C 82% 5.0 mph ESE8.0 kmh ESE -- 29.99 in1015.6 mb 0.00 in0.0 mm 0.00 in0.0 mm 0.00 in0.0 mm
04:25 PM 35.1°F1.7°C 29.9°F-1.2°C 81% 9.0 mph ESE14.5 kmh ESE -- 29.99 in1015.6 mb 0.00 in0.0 mm 0.00 in0.0 mm 0.00 in0.0 mm
04:30 PM 35.0°F1.7°C 30.1°F-1.1°C 82% 3.0 mph ESE4.8 kmh ESE -- 29.98 in1015.2 mb 0.00 in0.0 mm 0.00 in0.0 mm 0.00 in0.0 mm
04:35 PM 34.9°F1.6°C 30.0°F-1.1°C 82% 3.0 mph SE4.8 kmh SE -- 29.98 in1015.2 mb 0.00 in0.0 mm 0.00 in0.0 mm 0.00 in0.0 mm
04:40 PM 34.8°F1.6°C 29.9°F-1.2°C 82% 4.0 mph SE6.4 kmh SE -- 29.97 in1014.9 mb 0.00 in0.0 mm 0.00 in0.0 mm 0.00 in0.0 mm
04:45 PM 34.8°F1.6°C 30.2°F-1.0°C 83% 3.0 mph E4.8 kmh E -- 29.96 in1014.6 mb 0.00 in0.0 mm 0.00 in0.0 mm 0.00 in0.0 mm
04:50 PM 34.6°F1.4°C 30.0°F-1.1°C 83% 5.0 mph ESE8.0 kmh ESE -- 29.96 in1014.6 mb 0.00 in0.0 mm 0.00 in0.0 mm 0.00 in0.0 mm
04:55 PM 34.5°F1.4°C 29.9°F-1.2°C 83% 5.0 mph ESE8.0 kmh ESE -- 29.97 in1014.9 mb 0.00 in0.0 mm 0.00 in0.0 mm 0.00 in0.0 mm
05:00 PM 34.4°F1.3°C 30.1°F-1.1°C 84% 9.0 mph ESE14.5 kmh ESE 16.0 mph25.7 kmh 29.96 in1014.6 mb 0.00 in0.0 mm 0.00 in0.0 mm 0.00 in0.0 mm
05:05 PM 34.3°F1.3°C 30.0°F-1.1°C 84% 7.0 mph SE11.3 kmh SE 16.0 mph25.7 kmh 29.96 in1014.6 mb 0.00 in0.0 mm 0.00 in0.0 mm 0.00 in0.0 mm
05:10 PM 34.3°F1.3°C 30.0°F-1.1°C 84% 4.0 mph ESE6.4 kmh ESE -- 29.95 in1014.2 mb 0.00 in0.0 mm 0.00 in0.0 mm 0.00 in0.0 mm
05:15 PM 34.2°F1.2°C 29.9°F-1.2°C 84% 5.0 mph E8.0 kmh E -- 29.94 in1013.9 mb 0.00 in0.0 mm 0.00 in0.0 mm 0.00 in0.0 mm
05:20 PM 34.1°F1.2°C 29.8°F-1.2°C 84% 3.0 mph E4.8 kmh E -- 29.94 in1013.9 mb 0.00 in0.0 mm 0.00 in0.0 mm 0.00 in0.0 mm
05:25 PM 34.1°F1.2°C 30.1°F-1.1°C 85% 2.0 mph E3.2 kmh E -- 29.93 in1013.5 mb 0.00 in0.0 mm 0.00 in0.0 mm 0.00 in0.0 mm
05:30 PM 34.1°F1.2°C 30.1°F-1.1°C 85% 7.0 mph ESE11.3 kmh ESE -- 29.93 in1013.5 mb 0.00 in0.0 mm 0.00 in0.0 mm 0.00 in0.0 mm
05:35 PM 34.1°F1.2°C 30.1°F-1.1°C 85% 4.0 mph ESE6.4 kmh ESE -- 29.93 in1013.5 mb 0.00 in0.0 mm 0.00 in0.0 mm 0.00 in0.0 mm
05:40 PM 34.1°F1.2°C 30.1°F-1.1°C 85% 9.0 mph ESE14.5 kmh ESE -- 29.92 in1013.2 mb 0.00 in0.0 mm 0.00 in0.0 mm 0.00 in0.0 mm
05:45 PM 34.2°F1.2°C 30.2°F-1.0°C 85% 4.0 mph SE6.4 kmh SE -- 29.92 in1013.2 mb 0.00 in0.0 mm 0.00 in0.0 mm 0.00 in0.0 mm
05:50 PM 34.2°F1.2°C 30.2°F-1.0°C 85% 5.0 mph ESE8.0 kmh ESE 15.0 mph24.1 kmh 29.91 in1012.9 mb 0.00 in0.0 mm 0.00 in0.0 mm 0.00 in0.0 mm
05:55 PM 34.2°F1.2°C 30.2°F-1.0°C 85% 9.0 mph E14.5 kmh E 15.0 mph24.1 kmh 29.91 in1012.9 mb 0.00 in0.0 mm 0.00 in0.0 mm 0.00 in0.0 mm
06:00 PM 34.3°F1.3°C 30.3°F-0.9°C 85% 5.0 mph ESE8.0 kmh ESE -- 29.91 in1012.9 mb 0.00 in0.0 mm 0.00 in0.0 mm 0.00 in0.0 mm
06:05 PM 34.3°F1.3°C 30.3°F-0.9°C 85% 9.0 mph ESE14.5 kmh ESE -- 29.89 in1012.2 mb 0.00 in0.0 mm 0.00 in0.0 mm 0.00 in0.0 mm
06:10 PM 34.3°F1.3°C 30.3°F-0.9°C 85% 4.0 mph SSE6.4 kmh SSE -- 29.89 in1012.2 mb 0.00 in0.0 mm 0.00 in0.0 mm 0.00 in0.0 mm
06:15 PM 34.3°F1.3°C 30.3°F-0.9°C 85% 4.0 mph ESE6.4 kmh ESE -- 29.88 in1011.9 mb 0.00 in0.0 mm 0.00 in0.0 mm 0.00 in0.0 mm
06:20 PM 34.2°F1.2°C 30.5°F-0.8°C 86% 9.0 mph SE14.5 kmh SE -- 29.88 in1011.9 mb 0.00 in0.0 mm 0.00 in0.0 mm 0.00 in0.0 mm
06:25 PM 34.1°F1.2°C 30.4°F-0.9°C 86% 2.0 mph E3.2 kmh E -- 29.87 in1011.5 mb 0.00 in0.0 mm 0.00 in0.0 mm 0.00 in0.0 mm
06:30 PM 33.9°F1.1°C 30.4°F-0.9°C 87% 5.0 mph ESE8.0 kmh ESE -- 29.86 in1011.2 mb 0.00 in0.0 mm 0.00 in0.0 mm 0.00 in0.0 mm
06:35 PM 33.8°F1.0°C 30.3°F-0.9°C 87% 6.0 mph SE9.7 kmh SE -- 29.86 in1011.2 mb 0.00 in0.0 mm 0.00 in0.0 mm 0.00 in0.0 mm
06:40 PM 33.7°F0.9°C 30.5°F-0.8°C 88% 9.0 mph ESE14.5 kmh ESE 16.0 mph25.7 kmh 29.85 in1010.8 mb 0.00 in0.0 mm 0.00 in0.0 mm 0.00 in0.0 mm
06:45 PM 33.7°F0.9°C 30.5°F-0.8°C 88% 5.0 mph ESE8.0 kmh ESE 16.0 mph25.7 kmh 29.84 in1010.5 mb 0.00 in0.0 mm 0.00 in0.0 mm 0.00 in0.0 mm
06:50 PM 33.6°F0.9°C 30.4°F-0.9°C 88% 8.0 mph SE12.9 kmh SE -- 29.84 in1010.5 mb 0.00 in0.0 mm 0.00 in0.0 mm 0.00 in0.0 mm
06:55 PM 33.6°F0.9°C 30.4°F-0.9°C 88% 5.0 mph E8.0 kmh E -- 29.83 in1010.2 mb 0.00 in0.0 mm 0.00 in0.0 mm 0.00 in0.0 mm
07:00 PM 33.5°F0.8°C 30.3°F-0.9°C 88% 7.0 mph E11.3 kmh E -- 29.82 in1009.8 mb 0.00 in0.0 mm 0.00 in0.0 mm 0.00 in0.0 mm
07:05 PM 33.5°F0.8°C 30.3°F-0.9°C 88% 6.0 mph SSE9.7 kmh SSE -- 29.82 in1009.8 mb 0.00 in0.0 mm 0.00 in0.0 mm 0.00 in0.0 mm
07:10 PM 33.6°F0.9°C 30.4°F-0.9°C 88% 10.0 mph ESE16.1 kmh ESE -- 29.82 in1009.8 mb 0.00 in0.0 mm 0.00 in0.0 mm 0.00 in0.0 mm
07:15 PM 33.6°F0.9°C 30.4°F-0.9°C 88% 6.0 mph SE9.7 kmh SE -- 29.82 in1009.8 mb 0.00 in0.0 mm 0.00 in0.0 mm 0.00 in0.0 mm
07:20 PM 33.6°F0.9°C 30.4°F-0.9°C 88% 5.0 mph E8.0 kmh E -- 29.82 in1009.8 mb 0.00 in0.0 mm 0.00 in0.0 mm 0.00 in0.0 mm
07:25 PM 33.6°F0.9°C 30.4°F-0.9°C 88% 5.0 mph E8.0 kmh E -- 29.81 in1009.5 mb 0.01 in0.3 mm 0.12 in3.0 mm 0.01 in0.3 mm
07:30 PM 33.6°F0.9°C 30.4°F-0.9°C 88% 5.0 mph ESE8.0 kmh ESE 10.0 mph16.1 kmh 29.81 in1009.5 mb 0.01 in0.3 mm 0.00 in0.0 mm 0.01 in0.3 mm
07:35 PM 33.6°F0.9°C 30.4°F-0.9°C 88% 5.0 mph E8.0 kmh E 10.0 mph16.1 kmh 29.80 in1009.1 mb 0.01 in0.3 mm 0.00 in0.0 mm 0.01 in0.3 mm
07:40 PM 33.6°F0.9°C 30.4°F-0.9°C 88% 3.0 mph ESE4.8 kmh ESE -- 29.80 in1009.1 mb 0.01 in0.3 mm 0.00 in0.0 mm 0.01 in0.3 mm
07:45 PM 33.6°F0.9°C 30.4°F-0.9°C 88% 7.0 mph E11.3 kmh E -- 29.79 in1008.8 mb 0.01 in0.3 mm 0.00 in0.0 mm 0.01 in0.3 mm
07:50 PM 33.6°F0.9°C 30.4°F-0.9°C 88% 2.0 mph E3.2 kmh E -- 29.78 in1008.5 mb 0.01 in0.3 mm 0.00 in0.0 mm 0.01 in0.3 mm
07:55 PM 33.7°F0.9°C 30.8°F-0.7°C 89% 7.0 mph ESE11.3 kmh ESE -- 29.77 in1008.1 mb 0.02 in0.5 mm 0.12 in3.0 mm 0.02 in0.5 mm
08:00 PM 33.8°F1.0°C 30.6°F-0.8°C 88% 4.0 mph ESE6.4 kmh ESE -- 29.77 in1008.1 mb 0.02 in0.5 mm 0.00 in0.0 mm 0.02 in0.5 mm
08:05 PM 33.9°F1.1°C 30.7°F-0.7°C 88% 6.0 mph E9.7 kmh E -- 29.76 in1007.8 mb 0.02 in0.5 mm 0.00 in0.0 mm 0.02 in0.5 mm
08:10 PM 34.1°F1.2°C 30.9°F-0.6°C 88% 4.0 mph ESE6.4 kmh ESE -- 29.75 in1007.5 mb 0.02 in0.5 mm 0.00 in0.0 mm 0.02 in0.5 mm
08:15 PM 34.3°F1.3°C 31.1°F-0.5°C 88% 8.0 mph SE12.9 kmh SE -- 29.74 in1007.1 mb 0.02 in0.5 mm 0.00 in0.0 mm 0.02 in0.5 mm
08:20 PM 34.3°F1.3°C 31.1°F-0.5°C 88% 7.0 mph ESE11.3 kmh ESE 17.0 mph27.4 kmh 29.73 in1006.8 mb 0.03 in0.8 mm 0.12 in3.0 mm 0.03 in0.8 mm
08:25 PM 34.5°F1.4°C 31.3°F-0.4°C 88% 7.0 mph E11.3 kmh E 17.0 mph27.4 kmh 29.73 in1006.8 mb 0.02 in0.5 mm 0.00 in0.0 mm 0.03 in0.8 mm
08:30 PM 34.6°F1.4°C 31.4°F-0.3°C 88% 7.0 mph E11.3 kmh E -- 29.72 in1006.4 mb 0.02 in0.5 mm 0.00 in0.0 mm 0.03 in0.8 mm
08:35 PM 34.7°F1.5°C 31.5°F-0.3°C 88% 7.0 mph E11.3 kmh E -- 29.71 in1006.1 mb 0.02 in0.5 mm 0.00 in0.0 mm 0.03 in0.8 mm
08:40 PM 34.8°F1.6°C 31.6°F-0.2°C 88% 7.0 mph ESE11.3 kmh ESE -- 29.70 in1005.8 mb 0.02 in0.5 mm 0.00 in0.0 mm 0.03 in0.8 mm
08:45 PM 35.0°F1.7°C 31.8°F-0.1°C 88% 10.0 mph E16.1 kmh E -- 29.70 in1005.8 mb 0.02 in0.5 mm 0.00 in0.0 mm 0.03 in0.8 mm
08:50 PM 35.0°F1.7°C 31.8°F-0.1°C 88% 7.0 mph SE11.3 kmh SE -- 29.69 in1005.4 mb 0.02 in0.5 mm 0.00 in0.0 mm 0.03 in0.8 mm
08:55 PM 35.2°F1.8°C 32.0°F0.0°C 88% 7.0 mph SE11.3 kmh SE -- 29.68 in1005.1 mb 0.01 in0.3 mm 0.00 in0.0 mm 0.03 in0.8 mm
09:00 PM 35.3°F1.8°C 32.1°F0.1°C 88% 5.0 mph E8.0 kmh E -- 29.68 in1005.1 mb 0.01 in0.3 mm 0.00 in0.0 mm 0.03 in0.8 mm
09:05 PM 35.3°F1.8°C 32.1°F0.1°C 88% 8.0 mph ESE12.9 kmh ESE -- 29.67 in1004.7 mb 0.02 in0.5 mm 0.12 in3.0 mm 0.04 in1.0 mm
09:10 PM 35.5°F1.9°C 32.3°F0.2°C 88% 8.0 mph ESE12.9 kmh ESE 15.0 mph24.1 kmh 29.67 in1004.7 mb 0.02 in0.5 mm 0.00 in0.0 mm 0.04 in1.0 mm
09:15 PM 35.6°F2.0°C 32.4°F0.2°C 88% 8.0 mph ESE12.9 kmh ESE 15.0 mph24.1 kmh 29.67 in1004.7 mb 0.03 in0.8 mm 0.12 in3.0 mm 0.05 in1.3 mm
09:20 PM 35.7°F2.1°C 32.5°F0.3°C 88% 9.0 mph ESE14.5 kmh ESE -- 29.66 in1004.4 mb 0.03 in0.8 mm 0.00 in0.0 mm 0.05 in1.3 mm
09:25 PM 35.9°F2.2°C 32.7°F0.4°C 88% 7.0 mph SE11.3 kmh SE -- 29.66 in1004.4 mb 0.02 in0.5 mm 0.00 in0.0 mm 0.05 in1.3 mm
09:30 PM 36.0°F2.2°C 32.8°F0.4°C 88% 7.0 mph SE11.3 kmh SE -- 29.65 in1004.1 mb 0.02 in0.5 mm 0.00 in0.0 mm 0.05 in1.3 mm
09:35 PM 36.2°F2.3°C 33.0°F0.6°C 88% 5.0 mph SE8.0 kmh SE -- 29.65 in1004.1 mb 0.02 in0.5 mm 0.00 in0.0 mm 0.05 in1.3 mm
09:40 PM 36.3°F2.4°C 33.1°F0.6°C 88% 7.0 mph ESE11.3 kmh ESE -- 29.65 in1004.1 mb 0.03 in0.8 mm 0.12 in3.0 mm 0.06 in1.5 mm
09:45 PM 36.4°F2.4°C 33.2°F0.7°C 88% 9.0 mph SE14.5 kmh SE -- 29.64 in1003.7 mb 0.03 in0.8 mm 0.00 in0.0 mm 0.06 in1.5 mm
09:50 PM 36.4°F2.4°C 33.2°F0.7°C 88% 17.0 mph E27.4 kmh E -- 29.63 in1003.4 mb 0.04 in1.0 mm 0.12 in3.0 mm 0.07 in1.8 mm
09:55 PM 36.4°F2.4°C 33.2°F0.7°C 88% 8.0 mph ESE12.9 kmh ESE -- 29.63 in1003.4 mb 0.04 in1.0 mm 0.00 in0.0 mm 0.07 in1.8 mm
10:00 PM 36.5°F2.5°C 33.3°F0.7°C 88% 13.0 mph ESE20.9 kmh ESE 19.0 mph30.6 kmh 29.62 in1003.0 mb 0.04 in1.0 mm 0.00 in0.0 mm 0.07 in1.8 mm
10:05 PM 36.6°F2.6°C 33.4°F0.8°C 88% 12.0 mph SE19.3 kmh SE 19.0 mph30.6 kmh 29.61 in1002.7 mb 0.04 in1.0 mm 0.00 in0.0 mm 0.08 in2.0 mm
10:10 PM 36.6°F2.6°C 33.4°F0.8°C 88% 11.0 mph SE17.7 kmh SE -- 29.60 in1002.4 mb 0.05 in1.3 mm 0.12 in3.0 mm 0.09 in2.3 mm
10:15 PM 36.6°F2.6°C 33.4°F0.8°C 88% 9.0 mph ESE14.5 kmh ESE -- 29.60 in1002.4 mb 0.04 in1.0 mm 0.00 in0.0 mm 0.09 in2.3 mm
10:20 PM 36.7°F2.6°C 33.5°F0.8°C 88% 9.0 mph SE14.5 kmh SE -- 29.59 in1002.0 mb 0.05 in1.3 mm 0.12 in3.0 mm 0.10 in2.5 mm
10:25 PM 36.7°F2.6°C 33.5°F0.8°C 88% 15.0 mph SE24.1 kmh SE -- 29.58 in1001.7 mb 0.05 in1.3 mm 0.00 in0.0 mm 0.10 in2.5 mm
10:30 PM 36.7°F2.6°C 33.5°F0.8°C 88% 8.0 mph ESE12.9 kmh ESE -- 29.58 in1001.7 mb 0.06 in1.5 mm 0.12 in3.0 mm 0.11 in2.8 mm
10:35 PM 36.8°F2.7°C 33.6°F0.9°C 88% 14.0 mph SE22.5 kmh SE -- 29.58 in1001.7 mb 0.06 in1.5 mm 0.00 in0.0 mm 0.11 in2.8 mm
10:40 PM 36.8°F2.7°C 33.6°F0.9°C 88% 10.0 mph SE16.1 kmh SE -- 29.58 in1001.7 mb 0.05 in1.3 mm 0.00 in0.0 mm 0.11 in2.8 mm
10:45 PM 36.8°F2.7°C 33.6°F0.9°C 88% 11.0 mph ESE17.7 kmh ESE -- 29.57 in1001.4 mb 0.06 in1.5 mm 0.12 in3.0 mm 0.12 in3.0 mm
10:50 PM 36.8°F2.7°C 33.6°F0.9°C 88% 7.0 mph ESE11.3 kmh ESE 21.0 mph33.8 kmh 29.56 in1001.0 mb 0.05 in1.3 mm 0.00 in0.0 mm 0.12 in3.0 mm
10:55 PM 36.9°F2.7°C 33.7°F0.9°C 88% 11.0 mph SE17.7 kmh SE 21.0 mph33.8 kmh 29.56 in1001.0 mb 0.06 in1.5 mm 0.12 in3.0 mm 0.13 in3.3 mm
11:00 PM 36.8°F2.7°C 33.6°F0.9°C 88% 10.0 mph ESE16.1 kmh ESE -- 29.55 in1000.7 mb 0.06 in1.5 mm 0.00 in0.0 mm 0.13 in3.3 mm
11:05 PM 36.9°F2.7°C 33.7°F0.9°C 88% 8.0 mph SE12.9 kmh SE -- 29.55 in1000.7 mb 0.05 in1.3 mm 0.00 in0.0 mm 0.13 in3.3 mm
11:10 PM 36.9°F2.7°C 33.7°F0.9°C 88% 7.0 mph ESE11.3 kmh ESE -- 29.54 in1000.3 mb 0.05 in1.3 mm 0.00 in0.0 mm 0.14 in3.6 mm
11:15 PM 36.9°F2.7°C 33.7°F0.9°C 88% 8.0 mph SE12.9 kmh SE -- 29.54 in1000.3 mb 0.05 in1.3 mm 0.00 in0.0 mm 0.14 in3.6 mm
11:20 PM 37.0°F2.8°C 33.8°F1.0°C 88% 3.0 mph ESE4.8 kmh ESE -- 29.53 in1000.0 mb 0.05 in1.3 mm 0.00 in0.0 mm 0.15 in3.8 mm
11:25 PM 37.0°F2.8°C 34.1°F1.2°C 89% 12.0 mph SE19.3 kmh SE -- 29.52 in999.7 mb 0.05 in1.3 mm 0.00 in0.0 mm 0.15 in3.8 mm
11:30 PM 37.1°F2.8°C 34.2°F1.2°C 89% 6.0 mph SE9.7 kmh SE -- 29.52 in999.7 mb 0.05 in1.3 mm 0.00 in0.0 mm 0.16 in4.1 mm
11:35 PM 37.0°F2.8°C 34.1°F1.2°C 89% 5.0 mph SE8.0 kmh SE -- 29.52 in999.7 mb 0.05 in1.3 mm 0.00 in0.0 mm 0.16 in4.1 mm
11:40 PM 37.0°F2.8°C 34.1°F1.2°C 89% 8.0 mph SE12.9 kmh SE 13.0 mph20.9 kmh 29.52 in999.7 mb 0.06 in1.5 mm 0.12 in3.0 mm 0.17 in4.3 mm
11:45 PM 37.0°F2.8°C 34.1°F1.2°C 89% 4.0 mph SE6.4 kmh SE 13.0 mph20.9 kmh 29.52 in999.7 mb 0.05 in1.3 mm 0.00 in0.0 mm 0.17 in4.3 mm
11:50 PM 37.0°F2.8°C 34.1°F1.2°C 89% 4.0 mph SE6.4 kmh SE -- 29.53 in1000.0 mb 0.06 in1.5 mm 0.12 in3.0 mm 0.18 in4.6 mm
11:55 PM 37.1°F2.8°C 34.2°F1.2°C 89% 7.0 mph S11.3 kmh S -- 29.53 in1000.0 mb 0.06 in1.5 mm 0.00 in0.0 mm 0.19 in4.8 mm